Time;durP1;ratioP1;P1;durP2;ratioP2;P2;SDS_P1;SDS_P2;PMS_P1;PMS_P2;Temp;Humidity;BMP_temperature;BMP_pressure;BME280_temperature;BME280_humidity;BME280_pressure;Samples;Min_cycle;Max_cycle;Signal;HPM_P1;HPM_P2
2022/06/18 00:00:55;;;;;;;4.35;2.63;;;;;;;21.51;59.65;101676.69;5046954;28;20025;-69
2022/06/18 00:03:22;;;;;;;5.35;2.75;;;;;;;21.47;60.31;101665.06;5047537;28;20057;-74
2022/06/18 00:05:49;;;;;;;6.95;3.08;;;;;;;21.47;60.51;101675.28;5041946;28;20399;-73
2022/06/18 00:08:19;;;;;;;3.60;3.22;;;;;;;21.39;61.00;101676.94;5048678;28;20157;-73
2022/06/18 00:10:46;;;;;;;6.57;3.47;;;;;;;21.34;61.59;101662.72;5043173;28;20038;-73
2022/06/18 00:13:39;;;;;;;3.65;3.30;;;;;;;21.29;61.67;101665.09;5028228;28;20631;-76
2022/06/18 00:16:06;;;;;;;5.93;3.22;;;;;;;21.25;60.69;101663.66;5028081;28;20044;-75
2022/06/18 00:18:31;;;;;;;3.75;2.70;;;;;;;21.24;60.96;101661.06;5027764;28;20036;-70
2022/06/18 00:21:00;;;;;;;4.57;3.00;;;;;;;21.19;61.73;101660.69;5028998;28;20033;-72
2022/06/18 00:23:26;;;;;;;6.65;3.40;;;;;;;21.12;62.47;101660.44;5027116;28;20071;-70
2022/06/18 00:25:52;;;;;;;5.15;3.22;;;;;;;21.08;62.31;101659.03;5045338;28;20509;-71
2022/06/18 00:28:24;;;;;;;8.15;3.47;;;;;;;21.06;62.21;101659.19;5028048;28;20108;-74
2022/06/18 00:30:51;;;;;;;2.95;2.65;;;;;;;20.96;63.22;101660.31;5026591;28;20499;-71
2022/06/18 00:33:17;;;;;;;6.90;3.50;;;;;;;20.95;62.01;101659.44;5029212;28;20071;-72
2022/06/18 00:35:44;;;;;;;5.75;3.58;;;;;;;20.92;62.41;101659.75;5041304;28;20041;-74
2022/06/18 00:38:32;;;;;;;6.32;3.70;;;;;;;20.91;61.83;101658.00;5027091;28;20051;-74
2022/06/18 00:40:58;;;;;;;6.95;3.47;;;;;;;20.88;62.24;101656.41;5028233;28;20405;-74
2022/06/18 00:43:32;;;;;;;4.50;3.53;;;;;;;20.88;61.98;101661.94;5032298;28;20131;-74
2022/06/18 00:46:10;;;;;;;6.20;3.53;;;;;;;20.81;62.29;101657.22;5027974;28;20439;-75
2022/06/18 00:48:54;;;;;;;3.95;3.28;;;;;;;20.80;62.16;101659.13;5027996;28;20045;-75
2022/06/18 00:51:25;;;;;;;4.22;3.40;;;;;;;20.76;62.09;101651.31;5036371;28;20466;-73
2022/06/18 00:54:08;;;;;;;5.88;3.53;;;;;;;20.72;62.37;101653.50;5026681;28;20044;-74
2022/06/18 00:56:41;;;;;;;6.78;3.58;;;;;;;20.63;63.72;101655.31;5028081;28;20358;-73
2022/06/18 00:59:24;;;;;;;6.70;3.90;;;;;;;20.64;62.74;101654.28;5038414;28;20117;-72
2022/06/18 01:01:50;;;;;;;4.65;3.80;;;;;;;20.56;63.93;101647.78;5026838;28;20052;-75
2022/06/18 01:04:31;;;;;;;6.55;3.80;;;;;;;20.49;63.91;101653.09;5035880;28;20036;-73
2022/06/18 01:07:13;;;;;;;5.10;3.40;;;;;;;20.46;63.52;101649.75;5029483;28;20040;-74
2022/06/18 01:09:39;;;;;;;7.70;3.50;;;;;;;20.39;65.26;101643.97;5042944;28;20033;-73
2022/06/18 01:12:05;;;;;;;4.05;3.60;;;;;;;20.37;65.68;101648.78;5025762;28;20035;-72
2022/06/18 01:14:32;;;;;;;9.40;3.72;;;;;;;20.34;65.69;101646.34;5025962;28;20064;-74
2022/06/18 01:17:01;;;;;;;6.28;3.53;;;;;;;20.30;64.67;101644.91;5026350;28;20105;-75
2022/06/18 01:19:42;;;;;;;6.93;3.90;;;;;;;20.27;65.69;101645.19;5027397;28;20071;-73
2022/06/18 01:22:36;;;;;;;4.20;3.75;;;;;;;20.23;64.82;101641.00;5043242;28;20065;-73
2022/06/18 01:25:06;;;;;;;6.55;4.28;;;;;;;20.10;67.63;101649.69;5045955;28;20040;-73
2022/06/18 01:27:36;;;;;;;4.43;3.50;;;;;;;20.07;66.57;101648.09;5032580;28;20108;-76
2022/06/18 01:30:07;;;;;;;4.55;3.30;;;;;;;20.03;66.56;101643.00;5027322;28;20490;-69
2022/06/18 01:32:36;;;;;;;6.25;3.45;;;;;;;20.00;67.08;101646.06;5025264;28;20132;-75
2022/06/18 01:35:04;;;;;;;5.60;3.60;;;;;;;19.94;67.38;101632.88;5039102;28;20455;-74
2022/06/18 01:37:32;;;;;;;6.63;4.20;;;;;;;19.90;67.64;101629.56;5042453;28;20079;-72
2022/06/18 01:40:12;;;;;;;6.60;3.95;;;;;;;19.87;68.08;101630.75;5025811;28;20041;-73
2022/06/18 01:42:45;;;;;;;6.82;4.07;;;;;;;19.85;67.33;101635.53;5020498;28;20063;-74
2022/06/18 01:45:33;;;;;;;7.40;4.05;;;;;;;19.84;66.06;101636.56;5025012;28;20402;-74
2022/06/18 01:48:02;;;;;;;6.20;3.80;;;;;;;19.71;68.93;101630.50;5025771;28;20037;-72
2022/06/18 01:50:36;;;;;;;5.28;3.97;;;;;;;19.69;67.69;101638.09;5011843;28;20389;-74
2022/06/18 01:53:09;;;;;;;6.93;3.67;;;;;;;19.67;67.90;101642.00;5026997;28;20034;-69
2022/06/18 01:55:43;;;;;;;5.03;3.90;;;;;;;19.65;68.21;101638.53;5009559;28;20034;-74
2022/06/18 01:58:16;;;;;;;5.10;4.00;;;;;;;19.64;68.50;101631.28;5036452;28;20069;-73
2022/06/18 02:00:46;;;;;;;4.88;4.13;;;;;;;19.62;68.02;101631.41;5025446;28;20037;-70
2022/06/18 02:03:11;;;;;;;8.43;3.75;;;;;;;19.61;68.10;101621.41;5026549;28;20124;-72
2022/06/18 02:05:37;;;;;;;4.90;4.07;;;;;;;19.56;68.04;101626.47;5036006;28;20488;-74
2022/06/18 02:08:06;;;;;;;13.48;4.90;;;;;;;19.55;68.52;101621.97;5025448;28;20503;-72
2022/06/18 02:11:03;;;;;;;8.32;5.30;;;;;;;19.53;67.79;101626.75;5025649;28;20073;-70
2022/06/18 02:13:34;;;;;;;7.15;4.82;;;;;;;19.47;68.26;101628.25;5029359;28;20046;-75
2022/06/18 02:16:02;;;;;;;8.77;4.32;;;;;;;19.44;69.16;101625.78;5029574;28;20041;-75
2022/06/18 02:18:29;;;;;;;7.82;4.22;;;;;;;19.38;69.14;101626.38;5031225;28;20444;-73
2022/06/18 02:20:58;;;;;;;6.32;4.72;;;;;;;19.40;69.32;101618.84;5035299;28;20487;-73
2022/06/18 02:23:25;;;;;;;6.25;4.80;;;;;;;19.36;69.62;101622.91;5045704;28;20029;-73
2022/06/18 02:25:51;;;;;;;9.88;4.60;;;;;;;19.34;70.22;101628.56;5028773;28;20558;-73
2022/06/18 02:28:30;;;;;;;6.20;4.80;;;;;;;19.33;68.50;101618.53;5030387;28;20033;-72
2022/06/18 02:30:58;;;;;;;6.15;4.70;;;;;;;19.32;69.21;101614.06;5030219;28;20511;-73
2022/06/18 02:33:42;;;;;;;7.18;4.88;;;;;;;19.29;70.08;101617.09;5034959;28;20033;-74
2022/06/18 02:36:16;;;;;;;7.90;5.95;;;;;;;19.32;69.39;101619.56;5042792;28;20327;-74
2022/06/18 02:38:43;;;;;;;7.30;4.95;;;;;;;19.28;70.26;101615.38;5030541;28;20045;-73
2022/06/18 02:41:09;;;;;;;6.32;5.47;;;;;;;19.26;69.30;101622.06;5029137;28;20055;-72
2022/06/18 02:43:35;;;;;;;7.00;5.32;;;;;;;19.27;70.07;101621.91;5029953;28;20049;-73
2022/06/18 02:46:03;;;;;;;7.43;4.88;;;;;;;19.26;70.00;101625.69;5045352;28;20032;-72
2022/06/18 02:48:34;;;;;;;5.90;5.00;;;;;;;19.23;69.61;101614.06;5031679;28;20021;-74
2022/06/18 02:51:01;;;;;;;8.82;5.93;;;;;;;19.21;69.51;101614.25;5027020;28;20059;-72
2022/06/18 02:53:29;;;;;;;7.65;5.70;;;;;;;19.26;69.81;101613.78;5012749;28;20497;-73
2022/06/18 02:55:59;;;;;;;8.13;5.43;;;;;;;19.24;69.35;101613.91;5012336;28;20055;-72
2022/06/18 02:58:28;;;;;;;8.70;6.07;;;;;;;19.28;68.80;101612.59;5028496;28;20108;-73
2022/06/18 03:00:57;;;;;;;7.53;6.30;;;;;;;19.31;68.40;101616.97;5029210;28;20185;-70
2022/06/18 03:03:25;;;;;;;10.55;6.25;;;;;;;19.34;68.67;101614.75;5031223;28;20131;-73
2022/06/18 03:05:54;;;;;;;9.32;5.72;;;;;;;19.33;68.48;101615.78;5039000;28;20414;-73
2022/06/18 03:08:25;;;;;;;11.57;6.22;;;;;;;19.35;68.85;101618.38;5029790;28;20064;-73
2022/06/18 03:13:39;;;;;;;8.07;6.30;;;;;;;19.33;68.95;101625.97;5028179;28;20099;-72
2022/06/18 03:16:08;;;;;;;12.77;6.55;;;;;;;19.31;68.57;101623.34;5027594;28;20025;-72
2022/06/18 03:18:36;;;;;;;8.35;6.68;;;;;;;19.33;68.27;101625.97;5028002;28;20056;-73
2022/06/18 03:21:17;;;;;;;8.00;6.25;;;;;;;19.32;68.05;101629.75;5035199;28;20061;-71
2022/06/18 03:23:44;;;;;;;6.60;5.65;;;;;;;19.26;69.52;101628.44;5044294;28;20525;-73
2022/06/18 03:26:10;;;;;;;6.70;5.53;;;;;;;19.24;70.29;101624.94;5045104;28;20033;-73
2022/06/18 03:28:36;;;;;;;10.93;6.03;;;;;;;19.20;69.74;101625.41;5011465;28;20033;-75
2022/06/18 03:31:01;;;;;;;10.43;6.60;;;;;;;19.21;68.56;101621.63;5027665;28;20505;-69
2022/06/18 03:33:28;;;;;;;9.95;5.97;;;;;;;19.20;69.63;101618.00;5039840;28;20060;-72
2022/06/18 03:35:55;;;;;;;10.20;6.45;;;;;;;19.21;68.56;101627.13;5045749;28;20442;-74
2022/06/18 03:38:21;;;;;;;7.38;5.43;;;;;;;19.17;69.32;101631.22;5047740;28;20032;-74
2022/06/18 03:40:51;;;;;;;7.22;6.05;;;;;;;19.13;69.19;101633.41;5030984;28;20160;-71
2022/06/18 03:43:21;;;;;;;10.50;6.38;;;;;;;19.14;69.59;101632.38;5026561;28;20139;-73
2022/06/18 03:45:50;;;;;;;7.88;6.00;;;;;;;19.13;70.12;101630.66;5044013;28;20440;-73
2022/06/18 03:48:23;;;;;;;9.15;6.68;;;;;;;19.12;70.41;101631.69;5044298;28;20506;-72
2022/06/18 03:50:49;;;;;;;8.05;6.35;;;;;;;19.07;70.40;101631.22;5038643;28;20119;-74
2022/06/18 03:53:16;;;;;;;12.00;6.72;;;;;;;19.07;70.62;101633.97;5028990;28;20036;-72
2022/06/18 03:55:43;;;;;;;9.63;5.97;;;;;;;19.12;69.93;101631.69;5029968;28;20512;-72
2022/06/18 03:58:08;;;;;;;11.30;6.82;;;;;;;19.09;70.68;101632.81;5031282;28;20389;-74
2022/06/18 04:00:34;;;;;;;10.70;6.75;;;;;;;19.09;71.17;101624.56;5027183;28;20121;-73
2022/06/18 04:03:00;;;;;;;6.47;5.43;;;;;;;19.10;70.59;101619.91;5027439;28;20127;-75
2022/06/18 04:05:27;;;;;;;10.50;6.55;;;;;;;19.15;69.97;101619.47;5041915;28;20060;-73
2022/06/18 04:07:52;;;;;;;7.80;6.25;;;;;;;19.16;70.58;101618.44;5027191;28;20041;-74
2022/06/18 04:10:38;;;;;;;10.15;6.80;;;;;;;19.15;71.37;101616.69;5027434;28;20151;-74
2022/06/18 04:13:03;;;;;;;9.85;6.35;;;;;;;19.22;69.94;101607.69;5013513;28;20428;-73
2022/06/18 04:15:47;;;;;;;8.77;6.55;;;;;;;19.27;69.89;101610.88;5027270;28;20124;-71
2022/06/18 04:18:22;;;;;;;9.60;6.70;;;;;;;19.30;70.89;101609.69;5044910;28;20029;-75
2022/06/18 04:20:49;;;;;;;11.73;6.88;;;;;;;19.34;69.65;101612.00;5036575;28;20065;-74
2022/06/18 04:23:15;;;;;;;8.60;6.60;;;;;;;19.40;71.15;101612.41;5026962;28;20409;-73
2022/06/18 04:25:43;;;;;;;9.88;6.40;;;;;;;19.43;70.58;101614.88;5026938;28;20127;-73
2022/06/18 04:28:11;;;;;;;9.60;6.75;;;;;;;19.47;70.85;101610.81;5040509;28;20033;-73
2022/06/18 04:30:38;;;;;;;7.28;6.45;;;;;;;19.53;70.16;101602.78;5026771;28;20032;-72
2022/06/18 04:33:09;;;;;;;7.65;6.55;;;;;;;19.60;70.93;101608.63;5026268;28;20079;-72
2022/06/18 04:35:40;;;;;;;11.65;6.20;;;;;;;19.66;70.49;101615.44;5040921;28;20496;-72
2022/06/18 04:38:10;;;;;;;8.93;7.03;;;;;;;19.70;69.99;101609.44;5026721;28;20087;-72
2022/06/18 04:40:51;;;;;;;10.30;7.35;;;;;;;19.77;70.62;101612.47;5027863;28;20060;-72
2022/06/18 04:43:21;;;;;;;8.43;6.85;;;;;;;19.86;69.18;101620.72;5033532;28;20028;-73
2022/06/18 04:45:49;;;;;;;13.65;7.05;;;;;;;19.88;70.05;101613.16;5045754;28;20037;-71
2022/06/18 04:48:21;;;;;;;8.17;6.60;;;;;;;19.98;69.98;101613.09;5026140;28;20022;-72
2022/06/18 04:50:46;;;;;;;10.02;7.15;;;;;;;20.06;69.36;101615.09;5030929;28;20049;-71
2022/06/18 04:53:12;;;;;;;14.15;7.75;;;;;;;20.09;68.63;101618.41;5026673;28;20033;-72
2022/06/18 04:55:40;;;;;;;11.38;8.15;;;;;;;20.13;68.22;101613.44;5042184;28;20587;-72
2022/06/18 04:58:05;;;;;;;9.52;7.85;;;;;;;20.20;68.06;101614.56;5027402;28;20136;-72
2022/06/18 05:00:33;;;;;;;10.65;8.25;;;;;;;20.32;69.02;101612.44;5025854;28;20037;-72
2022/06/18 05:03:21;;;;;;;10.27;8.38;;;;;;;20.34;68.37;101618.69;5031971;28;20099;-71
2022/06/18 05:06:02;;;;;;;10.18;8.15;;;;;;;20.39;68.27;101617.19;5042521;28;20188;-70
2022/06/18 05:08:56;;;;;;;10.50;8.35;;;;;;;20.55;68.82;101619.28;5045225;28;20404;-72
2022/06/18 05:12:00;;;;;;;13.00;8.38;;;;;;;20.61;66.93;101615.91;5043662;28;20048;-72
2022/06/18 05:14:43;;;;;;;;;;;;;;;20.76;66.31;101623.66;5036219;28;20133;-72
2022/06/18 05:17:16;;;;;;;12.85;7.82;;;;;;;20.79;67.66;101618.66;5032521;28;20384;-72
2022/06/18 05:19:42;;;;;;;11.00;8.38;;;;;;;20.79;67.13;101626.94;5045499;28;20029;-71
2022/06/18 05:22:08;;;;;;;14.10;9.18;;;;;;;20.87;66.31;101629.78;5041885;28;20647;-71
2022/06/18 05:24:35;;;;;;;14.10;9.18;;;;;;;20.92;66.31;101634.84;5045096;28;20429;-72
2022/06/18 05:27:17;;;;;;;15.88;9.00;;;;;;;21.10;65.36;101627.41;5044222;28;20025;-72
2022/06/18 05:29:42;;;;;;;11.65;8.57;;;;;;;21.30;65.32;101633.59;5055416;28;20209;-72
2022/06/18 05:32:08;;;;;;;12.98;8.20;;;;;;;21.44;64.77;101632.16;5043480;28;20025;-72
2022/06/18 05:34:36;;;;;;;11.75;8.52;;;;;;;21.42;64.63;101639.78;5043655;28;20063;-71
2022/06/18 05:37:02;;;;;;;14.55;9.15;;;;;;;21.49;64.28;101642.75;5045156;28;20052;-69
2022/06/18 05:39:28;;;;;;;16.90;9.30;;;;;;;21.54;65.22;101635.72;5045361;28;20498;-72
2022/06/18 05:41:53;;;;;;;12.30;8.85;;;;;;;21.62;65.82;101637.66;5042015;28;20017;-72
2022/06/18 05:44:18;;;;;;;13.32;9.55;;;;;;;21.68;63.77;101641.66;5040471;28;20128;-71
2022/06/18 05:46:44;;;;;;;19.13;9.73;;;;;;;21.71;64.12;101642.22;5043758;28;20387;-72
2022/06/18 05:49:10;;;;;;;14.48;9.70;;;;;;;21.81;62.70;101640.19;5041433;28;20039;-71
2022/06/18 05:51:35;;;;;;;14.85;9.98;;;;;;;21.83;62.80;101629.81;5045646;28;20573;-73
2022/06/18 05:54:01;;;;;;;13.82;9.57;;;;;;;21.95;63.41;101644.22;5044262;28;20029;-68
2022/06/18 05:56:56;;;;;;;19.33;9.23;;;;;;;22.01;62.87;101639.91;5037658;28;20052;-72
2022/06/18 05:59:36;;;;;;;12.52;8.75;;;;;;;22.11;62.55;101640.69;5041843;28;20090;-72
2022/06/18 06:02:04;;;;;;;16.77;8.50;;;;;;;22.25;62.79;101642.84;5043701;28;20553;-72
2022/06/18 06:04:29;;;;;;;14.68;8.70;;;;;;;22.29;62.94;101635.94;5043471;28;20041;-72
2022/06/18 06:06:56;;;;;;;13.68;8.00;;;;;;;22.35;62.79;101638.00;5043265;28;20492;-71
2022/06/18 06:12:12;;;;;;;20.70;9.48;;;;;;;22.48;62.23;101620.91;5043209;28;20082;-70
2022/06/18 06:14:39;;;;;;;13.60;8.68;;;;;;;22.53;61.93;101620.38;5043329;28;20458;-72
2022/06/18 06:17:10;;;;;;;15.35;8.85;;;;;;;22.66;62.40;101624.41;5035673;28;20055;-71
2022/06/18 06:19:36;;;;;;;14.00;9.00;;;;;;;22.74;63.08;101617.97;5041854;28;20041;-68
2022/06/18 06:22:02;;;;;;;12.20;8.38;;;;;;;22.83;61.97;101613.31;5030254;28;20040;-68
2022/06/18 06:24:28;;;;;;;16.00;8.68;;;;;;;22.84;61.49;101623.34;5044700;28;20711;-70
2022/06/18 06:26:53;;;;;;;14.73;9.00;;;;;;;22.94;61.52;101617.66;5039685;28;20120;-70
2022/06/18 06:29:18;;;;;;;16.88;8.27;;;;;;;23.02;61.58;101617.69;5040973;28;20028;-71
2022/06/18 06:31:44;;;;;;;15.45;8.95;;;;;;;23.04;61.98;101619.25;5043306;28;20076;-70
2022/06/18 06:34:09;;;;;;;16.58;8.30;;;;;;;23.09;61.29;101616.81;5044660;28;20061;-71
2022/06/18 06:36:34;;;;;;;19.17;9.95;;;;;;;23.02;61.64;101614.91;5044295;28;20037;-72
2022/06/18 06:39:00;;;;;;;14.52;7.68;;;;;;;23.10;61.47;101615.75;5045436;28;20033;-71
2022/06/18 06:41:28;;;;;;;12.50;8.13;;;;;;;23.19;60.72;101621.31;5042005;28;20120;-72
2022/06/18 06:43:53;;;;;;;14.73;7.72;;;;;;;23.28;60.45;101614.72;5043345;28;20075;-71
2022/06/18 06:46:20;;;;;;;14.88;8.45;;;;;;;23.33;59.55;101615.91;5044143;28;20037;-71
2022/06/18 06:48:45;;;;;;;12.25;7.40;;;;;;;23.43;59.41;101616.59;5048311;28;20083;-71
2022/06/18 06:51:14;;;;;;;14.38;8.80;;;;;;;23.43;60.61;101619.38;5037610;28;20061;-72
2022/06/18 06:53:40;;;;;;;17.95;8.80;;;;;;;23.41;60.48;101615.91;5054838;28;20033;-71
2022/06/18 06:58:53;;;;;;;13.63;7.57;;;;;;;23.63;58.97;101619.84;5041381;28;20040;-71
2022/06/18 07:01:19;;;;;;;18.70;8.27;;;;;;;23.73;60.05;101621.56;5047994;28;20029;-72
2022/06/18 07:03:44;;;;;;;14.60;7.93;;;;;;;23.85;59.82;101623.78;5034644;28;20467;-71
2022/06/18 07:06:10;;;;;;;14.00;9.45;;;;;;;23.82;59.66;101620.50;5037129;28;20156;-72
2022/06/18 07:08:35;;;;;;;13.40;8.40;;;;;;;23.95;59.02;101626.38;5029678;28;20037;-72
2022/06/18 07:11:00;;;;;;;12.73;8.20;;;;;;;24.00;59.70;101626.69;5047057;28;20083;-72
2022/06/18 07:13:26;;;;;;;14.85;8.07;;;;;;;24.14;58.40;101625.94;5029003;28;20377;-71
2022/06/18 07:15:53;;;;;;;14.65;8.02;;;;;;;24.19;58.62;101626.25;5029242;28;20038;-72
2022/06/18 07:18:24;;;;;;;16.55;8.90;;;;;;;24.28;58.62;101629.00;5033860;28;20450;-72
2022/06/18 07:20:49;;;;;;;15.07;8.63;;;;;;;24.34;59.42;101628.25;5028794;28;20045;-72
2022/06/18 07:23:15;;;;;;;15.25;8.00;;;;;;;24.49;59.21;101631.19;5030211;28;20385;-73
2022/06/18 07:25:41;;;;;;;12.98;7.22;;;;;;;24.65;58.66;101629.16;5046049;28;20046;-71
2022/06/18 07:28:07;;;;;;;14.70;8.68;;;;;;;24.77;58.47;101626.81;5027080;28;20033;-72
2022/06/18 07:30:33;;;;;;;13.50;8.77;;;;;;;24.92;57.28;101624.09;5027513;28;20524;-72
2022/06/18 07:32:59;;;;;;;16.65;8.88;;;;;;;24.93;57.28;101623.88;5034169;28;20048;-72
2022/06/18 07:35:29;;;;;;;17.60;9.25;;;;;;;24.91;56.83;101619.56;5040680;28;20112;-72
2022/06/18 07:37:57;;;;;;;18.77;9.43;;;;;;;24.81;58.10;101618.97;5029296;28;20542;-72
2022/06/18 07:40:22;;;;;;;17.92;9.20;;;;;;;24.94;56.83;101627.53;5028785;28;20129;-72
2022/06/18 07:42:52;;;;;;;17.20;9.60;;;;;;;25.02;55.91;101621.03;5029505;28;20468;-72
2022/06/18 07:45:21;;;;;;;18.00;9.40;;;;;;;25.11;56.71;101626.38;5029589;28;20056;-72
2022/06/18 07:47:47;;;;;;;18.55;9.23;;;;;;;25.18;56.86;101616.25;5037510;28;20034;-72
2022/06/18 07:50:14;;;;;;;17.38;9.25;;;;;;;25.26;56.96;101617.19;5028151;28;20041;-71
2022/06/18 07:52:40;;;;;;;20.65;8.90;;;;;;;25.39;57.11;101617.41;5044636;28;20033;-72
2022/06/18 07:55:09;;;;;;;15.23;8.82;;;;;;;25.39;56.39;101617.41;5047787;28;20040;-71
2022/06/18 07:57:34;;;;;;;16.85;9.07;;;;;;;25.52;55.22;101606.50;5043783;28;20048;-72
2022/06/18 08:00:00;;;;;;;14.40;8.45;;;;;;;25.63;55.62;101608.78;5048181;28;20029;-72
2022/06/18 08:02:25;;;;;;;16.35;9.20;;;;;;;25.78;55.88;101606.03;5044626;28;20028;-72
2022/06/18 08:04:50;;;;;;;15.60;8.57;;;;;;;26.06;54.62;101608.13;5046272;28;20048;-73
2022/06/18 08:07:16;;;;;;;17.83;8.35;;;;;;;26.33;52.91;101601.81;5046050;28;20112;-69
2022/06/18 08:09:41;;;;;;;15.55;8.63;;;;;;;26.69;53.11;101599.03;5042189;28;20071;-73
2022/06/18 08:12:07;;;;;;;19.65;7.93;;;;;;;27.10;52.91;101594.75;5041193;28;20535;-73
2022/06/18 08:14:32;;;;;;;17.15;8.35;;;;;;;27.59;52.40;101608.66;5044560;28;20033;-72
2022/06/18 08:16:58;;;;;;;13.23;7.57;;;;;;;28.00;50.82;101591.06;5044706;28;20060;-72
2022/06/18 08:19:23;;;;;;;14.98;7.97;;;;;;;28.13;49.39;101591.13;5027636;28;20049;-72
2022/06/18 08:21:49;;;;;;;24.58;8.93;;;;;;;28.37;47.78;101592.53;5027258;28;20072;-73
2022/06/18 08:24:18;;;;;;;22.58;7.82;;;;;;;28.64;47.80;101581.41;5027908;28;20041;-72
2022/06/18 08:26:45;;;;;;;14.73;7.30;;;;;;;28.97;48.14;101582.34;5027992;28;20515;-71
2022/06/18 08:29:17;;;;;;;15.07;8.23;;;;;;;29.26;47.86;101579.31;5036792;28;20048;-71
2022/06/18 08:31:43;;;;;;;19.10;8.57;;;;;;;29.37;46.28;101573.91;5026930;28;20033;-72
2022/06/18 08:34:09;;;;;;;13.85;8.23;;;;;;;29.42;47.03;101576.03;5034781;28;20132;-73
2022/06/18 08:36:35;;;;;;;16.58;7.15;;;;;;;29.81;47.00;101571.47;5032439;28;20029;-71
2022/06/18 08:39:00;;;;;;;14.77;7.60;;;;;;;30.16;45.92;101574.81;5028061;28;20033;-72
2022/06/18 08:41:41;;;;;;;17.23;7.70;;;;;;;30.31;47.18;101577.31;5034790;28;20033;-71
2022/06/18 08:44:23;;;;;;;13.88;7.18;;;;;;;30.57;45.22;101573.50;5035377;28;20130;-70
2022/06/18 08:46:49;;;;;;;10.25;6.95;;;;;;;30.86;43.95;101586.09;5027448;28;20045;-72
2022/06/18 08:50:15;;;;;;;18.88;7.20;;;;;;;31.00;45.21;101573.66;5026933;28;20041;-72
2022/06/18 08:52:59;;;;;;;14.77;6.55;;;;;;;31.25;44.74;101587.72;4985418;28;20381;-71
2022/06/18 08:55:46;;;;;;;15.30;6.82;;;;;;;31.45;44.01;101581.94;4985432;28;20060;-71
2022/06/18 08:58:19;;;;;;;14.27;6.57;;;;;;;31.67;43.97;101586.03;5015944;28;20138;-72
2022/06/18 09:01:01;;;;;;;13.60;6.82;;;;;;;31.49;42.29;101588.81;5044466;28;20159;-71
2022/06/18 09:03:41;;;;;;;15.40;6.90;;;;;;;31.54;41.98;101586.19;5044897;28;20043;-72
2022/06/18 09:06:44;;;;;;;10.43;6.20;;;;;;;31.87;43.90;101590.59;5034750;28;20408;-71
2022/06/18 09:09:34;;;;;;;12.73;6.78;;;;;;;32.12;43.09;101585.72;5027263;28;20453;-73
2022/06/18 09:12:14;;;;;;;18.17;7.97;;;;;;;32.43;41.10;101590.34;5028309;28;20124;-73
2022/06/18 09:14:50;;;;;;;16.90;8.40;;;;;;;32.49;40.70;101594.16;5026775;28;20107;-71
2022/06/18 09:17:25;;;;;;;19.75;8.48;;;;;;;32.58;41.79;101594.69;5027506;28;20037;-73
2022/06/18 09:20:08;;;;;;;17.33;8.48;;;;;;;32.81;42.03;101596.72;5026768;28;20079;-73
2022/06/18 09:22:39;;;;;;;16.35;9.13;;;;;;;32.86;41.36;101594.03;5039076;28;20112;-72
2022/06/18 09:25:10;;;;;;;16.63;7.90;;;;;;;32.95;41.52;101587.84;5044296;28;20041;-72
2022/06/18 09:27:43;;;;;;;13.68;7.55;;;;;;;33.10;42.10;101595.84;5043346;28;20119;-72
2022/06/18 09:30:16;;;;;;;16.48;7.07;;;;;;;32.80;38.22;101586.56;5042662;28;20075;-72
2022/06/18 09:32:47;;;;;;;17.75;7.03;;;;;;;32.77;38.09;101593.53;5043744;28;20029;-73
2022/06/18 09:35:25;;;;;;;11.85;5.57;;;;;;;32.90;40.63;101595.28;5040484;28;20037;-72
2022/06/18 09:38:12;;;;;;;22.30;6.28;;;;;;;33.34;41.30;101585.44;5026885;28;20029;-72
2022/06/18 09:40:48;;;;;;;19.38;7.07;;;;;;;33.42;40.20;101590.72;5027025;28;20508;-72
2022/06/18 09:43:28;;;;;;;15.57;6.25;;;;;;;33.73;40.35;101585.84;5026715;28;20033;-73
2022/06/18 09:45:58;;;;;;;13.27;6.80;;;;;;;33.70;36.38;101581.53;5026307;28;20072;-73
2022/06/18 09:48:23;;;;;;;14.30;6.95;;;;;;;33.60;37.59;101580.44;5026839;28;20067;-72
2022/06/18 09:50:50;;;;;;;9.82;5.95;;;;;;;33.90;37.35;101567.03;5026207;28;20128;-73
2022/06/18 09:53:21;;;;;;;19.85;6.15;;;;;;;34.16;37.62;101568.44;5026809;28;20393;-73
2022/06/18 09:56:25;;;;;;;15.87;5.27;;;;;;;34.38;38.03;101577.09;5030924;28;20099;-71
2022/06/18 09:58:59;;;;;;;14.48;5.88;;;;;;;34.46;36.56;101570.19;5026306;28;20045;-71
2022/06/18 10:01:35;;;;;;;15.60;6.15;;;;;;;34.45;37.52;101566.47;5026284;28;20029;-69
2022/06/18 10:06:57;;;;;;;16.23;6.10;;;;;;;34.48;35.30;101562.34;5051498;28;20082;-72
2022/06/18 10:10:02;;;;;;;16.90;5.72;;;;;;;34.75;38.11;101559.75;5053622;28;20057;-71
2022/06/18 10:12:33;;;;;;;14.05;4.97;;;;;;;34.89;34.88;101557.44;5004471;28;20034;-70
2022/06/18 10:15:03;;;;;;;38.75;7.07;;;;;;;34.86;34.86;101560.78;5023492;28;20092;-71
2022/06/18 10:17:54;;;;;;;12.98;5.75;;;;;;;34.95;37.25;101557.25;5026945;28;20052;-71
2022/06/18 10:21:07;;;;;;;17.80;6.73;;;;;;;34.91;36.31;101555.19;5026093;28;20033;-72
2022/06/18 10:23:44;;;;;;;17.63;7.05;;;;;;;34.82;38.03;101553.91;5024203;28;20084;-71
2022/06/18 10:26:31;;;;;;;16.15;6.45;;;;;;;34.81;37.07;101558.72;5026813;28;20067;-71
2022/06/18 10:29:07;;;;;;;15.50;6.60;;;;;;;34.87;37.07;101559.66;5026123;28;20038;-72
2022/06/18 10:31:59;;;;;;;14.30;5.95;;;;;;;34.72;36.64;101551.75;5026065;28;20042;-70
2022/06/18 10:34:52;;;;;;;17.58;6.93;;;;;;;34.68;35.43;101553.38;5037536;28;20036;-71
2022/06/18 10:37:45;;;;;;;12.38;6.13;;;;;;;35.17;36.83;101554.56;5030089;28;20420;-71
2022/06/18 10:40:28;;;;;;;15.35;6.07;;;;;;;35.00;36.34;101548.03;5040011;28;20055;-72
2022/06/18 10:43:02;;;;;;;19.30;6.78;;;;;;;35.11;36.19;101543.41;5034383;28;20057;-71
2022/06/18 10:45:39;;;;;;;17.33;6.18;;;;;;;35.47;36.22;101539.19;5029828;28;20460;-68
2022/06/18 10:48:13;;;;;;;17.33;7.22;;;;;;;35.21;35.88;101532.28;5041583;28;20037;-70
2022/06/18 10:50:44;;;;;;;14.05;6.18;;;;;;;35.23;37.14;101538.50;5046835;28;20048;-72
2022/06/18 10:53:13;;;;;;;;;;;;;;;35.78;36.94;101527.19;5048775;28;20041;-71
2022/06/18 10:55:39;;;;;;;13.55;6.20;;;;;;;35.69;33.02;101528.75;5045066;28;19923;-72
2022/06/18 10:58:12;;;;;;;16.27;7.18;;;;;;;35.45;34.94;101525.28;5047551;28;20024;-69
2022/06/18 11:00:39;;;;;;;15.43;5.80;;;;;;;35.82;36.55;101523.84;5045590;28;20033;-71
2022/06/18 11:03:17;;;;;;;18.00;6.70;;;;;;;35.93;35.56;101529.34;5045891;28;20116;-72
2022/06/18 11:05:45;;;;;;;13.77;5.82;;;;;;;36.17;33.70;101526.28;5044162;28;20036;-69
2022/06/18 11:08:26;;;;;;;13.43;6.68;;;;;;;36.05;34.09;101517.03;5040824;28;20056;-72
2022/06/18 11:10:54;;;;;;;;;;;;;;;36.47;33.42;101515.31;5040152;28;20044;-71
2022/06/18 11:13:21;;;;;;;14.45;6.68;;;;;;;36.16;33.19;101511.25;5044710;28;19924;-72
2022/06/18 11:15:46;;;;;;;13.35;5.63;;;;;;;36.38;35.05;101510.34;5044776;28;20160;-70
2022/06/18 11:18:21;;;;;;;13.25;5.50;;;;;;;36.44;33.88;101498.81;5028930;28;20073;-71
2022/06/18 11:21:04;;;;;;;19.10;7.00;;;;;;;36.36;33.13;101496.44;5039703;28;20045;-71
2022/06/18 11:23:34;;;;;;;11.07;6.18;;;;;;;36.38;32.69;101491.38;5044758;28;20111;-73
2022/06/18 11:25:59;;;;;;;17.75;6.45;;;;;;;36.50;32.03;101482.72;5039987;28;20143;-70
2022/06/18 11:28:40;;;;;;;17.50;5.90;;;;;;;36.30;32.90;101485.31;5029717;28;20082;-73
2022/06/18 11:31:06;;;;;;;15.43;6.65;;;;;;;36.23;31.16;101479.84;5028984;28;20067;-72
2022/06/18 11:33:54;;;;;;;12.98;6.60;;;;;;;36.08;34.23;101474.03;5035438;28;20491;-67
2022/06/18 11:36:32;;;;;;;19.27;6.22;;;;;;;36.31;32.81;101472.84;5036745;28;20033;-73
2022/06/18 11:38:59;;;;;;;13.63;6.43;;;;;;;35.92;31.07;101462.50;5029960;28;20081;-72
2022/06/18 11:41:42;;;;;;;18.88;7.00;;;;;;;35.97;34.88;101471.09;5029380;28;20423;-75
2022/06/18 11:44:19;;;;;;;12.20;5.35;;;;;;;35.75;36.01;101462.56;5028529;28;20092;-72
2022/06/18 11:46:52;;;;;;;17.40;6.60;;;;;;;35.94;35.96;101457.41;5028747;28;20186;-71
2022/06/18 11:49:36;;;;;;;14.65;5.32;;;;;;;36.21;34.34;101454.63;5028374;28;20044;-71
2022/06/18 11:52:11;;;;;;;12.77;5.88;;;;;;;36.29;33.22;101456.13;5033609;28;20037;-70
2022/06/18 11:54:57;;;;;;;18.08;5.88;;;;;;;36.67;33.45;101451.41;5048641;28;20063;-71